sensor_id;sensor_type;location;lat;lon;timestamp;temperature;humidity
4354;DHT22;11018;51.258;6.806;2024-03-06T00:00:46;4.60;99.90
4354;DHT22;11018;51.258;6.806;2024-03-06T00:03:11;4.60;99.90
4354;DHT22;11018;51.258;6.806;2024-03-06T00:05:37;4.50;99.90
4354;DHT22;11018;51.258;6.806;2024-03-06T00:08:02;4.50;99.90
4354;DHT22;11018;51.258;6.806;2024-03-06T00:10:29;4.50;99.90
4354;DHT22;11018;51.258;6.806;2024-03-06T00:12:54;4.50;99.90
4354;DHT22;11018;51.258;6.806;2024-03-06T00:15:20;4.50;99.90
4354;DHT22;11018;51.258;6.806;2024-03-06T00:17:46;4.60;99.90
4354;DHT22;11018;51.258;6.806;2024-03-06T00:20:12;4.60;99.90
4354;DHT22;11018;51.258;6.806;2024-03-06T00:22:37;4.70;99.90
4354;DHT22;11018;51.258;6.806;2024-03-06T00:25:03;4.70;99.90
4354;DHT22;11018;51.258;6.806;2024-03-06T00:27:29;4.70;99.90
4354;DHT22;11018;51.258;6.806;2024-03-06T00:29:55;4.80;99.90
4354;DHT22;11018;51.258;6.806;2024-03-06T00:32:20;4.80;99.90
4354;DHT22;11018;51.258;6.806;2024-03-06T00:34:46;4.80;99.90
4354;DHT22;11018;51.258;6.806;2024-03-06T00:37:11;4.70;99.90
4354;DHT22;11018;51.258;6.806;2024-03-06T00:39:37;4.80;99.90
4354;DHT22;11018;51.258;6.806;2024-03-06T00:42:03;5.10;99.90
4354;DHT22;11018;51.258;6.806;2024-03-06T00:44:28;5.30;99.90
4354;DHT22;11018;51.258;6.806;2024-03-06T00:46:54;5.10;99.90
4354;DHT22;11018;51.258;6.806;2024-03-06T00:49:20;4.80;99.90
4354;DHT22;11018;51.258;6.806;2024-03-06T00:51:45;4.60;99.90
4354;DHT22;11018;51.258;6.806;2024-03-06T00:54:11;4.50;99.90
4354;DHT22;11018;51.258;6.806;2024-03-06T00:56:39;4.50;99.90
4354;DHT22;11018;51.258;6.806;2024-03-06T00:59:05;4.40;99.90
4354;DHT22;11018;51.258;6.806;2024-03-06T01:01:31;4.40;99.90
4354;DHT22;11018;51.258;6.806;2024-03-06T01:03:56;4.40;99.90
4354;DHT22;11018;51.258;6.806;2024-03-06T01:06:22;4.30;99.90
4354;DHT22;11018;51.258;6.806;2024-03-06T01:08:47;4.30;99.90
4354;DHT22;11018;51.258;6.806;2024-03-06T01:11:13;4.30;99.90
4354;DHT22;11018;51.258;6.806;2024-03-06T01:13:41;4.20;99.90
4354;DHT22;11018;51.258;6.806;2024-03-06T01:16:07;4.20;99.90
4354;DHT22;11018;51.258;6.806;2024-03-06T01:18:33;4.20;99.90
4354;DHT22;11018;51.258;6.806;2024-03-06T01:20:59;4.20;99.90
4354;DHT22;11018;51.258;6.806;2024-03-06T01:23:24;4.20;99.90
4354;DHT22;11018;51.258;6.806;2024-03-06T01:25:50;4.30;99.90
4354;DHT22;11018;51.258;6.806;2024-03-06T01:28:15;4.30;99.90
4354;DHT22;11018;51.258;6.806;2024-03-06T01:30:41;4.30;99.90
4354;DHT22;11018;51.258;6.806;2024-03-06T01:33:06;4.40;99.90
4354;DHT22;11018;51.258;6.806;2024-03-06T01:35:32;4.40;99.90
4354;DHT22;11018;51.258;6.806;2024-03-06T01:37:58;4.40;99.90
4354;DHT22;11018;51.258;6.806;2024-03-06T01:40:23;4.30;99.90
4354;DHT22;11018;51.258;6.806;2024-03-06T01:42:49;4.50;99.90
4354;DHT22;11018;51.258;6.806;2024-03-06T01:45:15;4.70;99.90
4354;DHT22;11018;51.258;6.806;2024-03-06T01:47:40;4.70;99.90
4354;DHT22;11018;51.258;6.806;2024-03-06T01:50:07;4.50;99.90
4354;DHT22;11018;51.258;6.806;2024-03-06T01:52:36;4.40;99.90
4354;DHT22;11018;51.258;6.806;2024-03-06T01:55:03;4.20;99.90
4354;DHT22;11018;51.258;6.806;2024-03-06T01:57:30;4.10;99.90
4354;DHT22;11018;51.258;6.806;2024-03-06T01:59:56;4.10;99.90
4354;DHT22;11018;51.258;6.806;2024-03-06T02:02:22;4.00;99.90
4354;DHT22;11018;51.258;6.806;2024-03-06T02:04:48;4.00;99.90
4354;DHT22;11018;51.258;6.806;2024-03-06T02:07:14;4.00;99.90
4354;DHT22;11018;51.258;6.806;2024-03-06T02:09:41;4.00;99.90
4354;DHT22;11018;51.258;6.806;2024-03-06T02:12:08;4.00;99.90
4354;DHT22;11018;51.258;6.806;2024-03-06T02:14:35;4.00;99.90
4354;DHT22;11018;51.258;6.806;2024-03-06T02:17:00;4.00;99.90
4354;DHT22;11018;51.258;6.806;2024-03-06T02:19:38;4.00;99.90
4354;DHT22;11018;51.258;6.806;2024-03-06T02:22:03;4.10;99.90
4354;DHT22;11018;51.258;6.806;2024-03-06T02:24:29;4.20;99.90
4354;DHT22;11018;51.258;6.806;2024-03-06T02:26:56;4.30;99.90
4354;DHT22;11018;51.258;6.806;2024-03-06T02:29:23;4.30;99.90
4354;DHT22;11018;51.258;6.806;2024-03-06T02:31:49;4.20;99.90
4354;DHT22;11018;51.258;6.806;2024-03-06T02:34:14;4.30;99.90
4354;DHT22;11018;51.258;6.806;2024-03-06T02:36:40;4.30;99.90
4354;DHT22;11018;51.258;6.806;2024-03-06T02:39:05;4.30;99.90
4354;DHT22;11018;51.258;6.806;2024-03-06T02:41:35;4.30;99.90
4354;DHT22;11018;51.258;6.806;2024-03-06T02:44:01;4.30;99.90
4354;DHT22;11018;51.258;6.806;2024-03-06T02:46:28;4.30;99.90
4354;DHT22;11018;51.258;6.806;2024-03-06T02:48:53;4.30;99.90
4354;DHT22;11018;51.258;6.806;2024-03-06T02:51:20;4.30;99.90
4354;DHT22;11018;51.258;6.806;2024-03-06T02:53:46;4.30;99.90
4354;DHT22;11018;51.258;6.806;2024-03-06T02:56:18;4.30;99.90
4354;DHT22;11018;51.258;6.806;2024-03-06T02:58:44;4.20;99.90
4354;DHT22;11018;51.258;6.806;2024-03-06T03:01:10;4.20;99.90
4354;DHT22;11018;51.258;6.806;2024-03-06T03:03:35;4.20;99.90
4354;DHT22;11018;51.258;6.806;2024-03-06T03:06:01;4.30;99.90
4354;DHT22;11018;51.258;6.806;2024-03-06T03:08:28;4.30;99.90
4354;DHT22;11018;51.258;6.806;2024-03-06T03:10:53;4.30;99.90
4354;DHT22;11018;51.258;6.806;2024-03-06T03:13:19;4.20;99.90
4354;DHT22;11018;51.258;6.806;2024-03-06T03:15:44;4.20;99.90
4354;DHT22;11018;51.258;6.806;2024-03-06T03:18:10;4.30;99.90
4354;DHT22;11018;51.258;6.806;2024-03-06T03:20:35;4.20;99.90
4354;DHT22;11018;51.258;6.806;2024-03-06T03:23:02;4.20;99.90
4354;DHT22;11018;51.258;6.806;2024-03-06T03:25:28;4.20;99.90
4354;DHT22;11018;51.258;6.806;2024-03-06T03:27:53;4.20;99.90
4354;DHT22;11018;51.258;6.806;2024-03-06T03:30:19;4.20;99.90
4354;DHT22;11018;51.258;6.806;2024-03-06T03:32:48;4.20;99.90
4354;DHT22;11018;51.258;6.806;2024-03-06T03:35:14;4.10;99.90
4354;DHT22;11018;51.258;6.806;2024-03-06T03:37:39;4.10;99.90
4354;DHT22;11018;51.258;6.806;2024-03-06T03:40:06;3.90;99.90
4354;DHT22;11018;51.258;6.806;2024-03-06T03:42:32;3.90;99.90
4354;DHT22;11018;51.258;6.806;2024-03-06T03:44:58;3.90;99.90
4354;DHT22;11018;51.258;6.806;2024-03-06T03:47:23;3.80;99.90
4354;DHT22;11018;51.258;6.806;2024-03-06T03:49:49;3.80;99.90
4354;DHT22;11018;51.258;6.806;2024-03-06T03:52:15;3.90;99.90
4354;DHT22;11018;51.258;6.806;2024-03-06T03:54:41;3.90;99.90
4354;DHT22;11018;51.258;6.806;2024-03-06T03:57:06;3.80;99.90
4354;DHT22;11018;51.258;6.806;2024-03-06T03:59:33;3.80;99.90
4354;DHT22;11018;51.258;6.806;2024-03-06T04:01:59;3.90;99.90
4354;DHT22;11018;51.258;6.806;2024-03-06T04:04:24;3.90;99.90
4354;DHT22;11018;51.258;6.806;2024-03-06T04:06:50;3.90;99.90
4354;DHT22;11018;51.258;6.806;2024-03-06T04:09:16;3.80;99.90
4354;DHT22;11018;51.258;6.806;2024-03-06T04:11:41;3.80;99.90
4354;DHT22;11018;51.258;6.806;2024-03-06T04:14:07;3.80;99.90
4354;DHT22;11018;51.258;6.806;2024-03-06T04:16:33;3.80;99.90
4354;DHT22;11018;51.258;6.806;2024-03-06T04:18:59;3.80;99.90
4354;DHT22;11018;51.258;6.806;2024-03-06T04:21:25;3.80;99.90
4354;DHT22;11018;51.258;6.806;2024-03-06T04:23:50;3.70;99.90
4354;DHT22;11018;51.258;6.806;2024-03-06T04:26:16;3.70;99.90
4354;DHT22;11018;51.258;6.806;2024-03-06T04:28:43;3.70;99.90
4354;DHT22;11018;51.258;6.806;2024-03-06T04:31:09;3.70;99.90
4354;DHT22;11018;51.258;6.806;2024-03-06T04:33:34;3.70;99.90
4354;DHT22;11018;51.258;6.806;2024-03-06T04:36:03;3.80;99.90
4354;DHT22;11018;51.258;6.806;2024-03-06T04:38:31;3.80;99.90
4354;DHT22;11018;51.258;6.806;2024-03-06T04:40:56;3.80;99.90
4354;DHT22;11018;51.258;6.806;2024-03-06T04:43:22;3.80;99.90
4354;DHT22;11018;51.258;6.806;2024-03-06T04:45:47;3.80;99.90
4354;DHT22;11018;51.258;6.806;2024-03-06T04:48:13;3.80;99.90
4354;DHT22;11018;51.258;6.806;2024-03-06T04:50:38;3.80;99.90
4354;DHT22;11018;51.258;6.806;2024-03-06T04:53:04;3.70;99.90
4354;DHT22;11018;51.258;6.806;2024-03-06T04:55:30;3.70;99.90
4354;DHT22;11018;51.258;6.806;2024-03-06T04:57:56;3.80;99.90
4354;DHT22;11018;51.258;6.806;2024-03-06T05:00:22;4.20;99.90
4354;DHT22;11018;51.258;6.806;2024-03-06T05:02:48;4.10;99.90
4354;DHT22;11018;51.258;6.806;2024-03-06T05:05:16;3.90;99.90
4354;DHT22;11018;51.258;6.806;2024-03-06T05:07:42;3.80;99.90
4354;DHT22;11018;51.258;6.806;2024-03-06T05:10:08;3.80;99.90
4354;DHT22;11018;51.258;6.806;2024-03-06T05:12:34;3.80;99.90
4354;DHT22;11018;51.258;6.806;2024-03-06T05:15:00;3.70;99.90
4354;DHT22;11018;51.258;6.806;2024-03-06T05:17:25;3.70;99.90
4354;DHT22;11018;51.258;6.806;2024-03-06T05:19:51;3.70;99.90
4354;DHT22;11018;51.258;6.806;2024-03-06T05:22:17;3.70;99.90
4354;DHT22;11018;51.258;6.806;2024-03-06T05:24:43;3.70;99.90
4354;DHT22;11018;51.258;6.806;2024-03-06T05:27:09;3.80;99.90
4354;DHT22;11018;51.258;6.806;2024-03-06T05:29:35;3.80;99.90
4354;DHT22;11018;51.258;6.806;2024-03-06T05:32:02;3.80;99.90
4354;DHT22;11018;51.258;6.806;2024-03-06T05:34:29;3.80;99.90
4354;DHT22;11018;51.258;6.806;2024-03-06T05:36:55;3.80;99.90
4354;DHT22;11018;51.258;6.806;2024-03-06T05:39:21;3.90;99.90
4354;DHT22;11018;51.258;6.806;2024-03-06T05:41:47;4.00;99.90
4354;DHT22;11018;51.258;6.806;2024-03-06T05:44:12;4.00;99.90
4354;DHT22;11018;51.258;6.806;2024-03-06T05:46:38;4.20;99.90
4354;DHT22;11018;51.258;6.806;2024-03-06T05:49:03;4.20;99.90
4354;DHT22;11018;51.258;6.806;2024-03-06T05:51:30;4.30;99.90
4354;DHT22;11018;51.258;6.806;2024-03-06T05:53:56;4.50;99.90
4354;DHT22;11018;51.258;6.806;2024-03-06T05:56:21;4.60;99.90
4354;DHT22;11018;51.258;6.806;2024-03-06T05:58:47;4.70;99.90
4354;DHT22;11018;51.258;6.806;2024-03-06T06:01:17;4.70;99.90
4354;DHT22;11018;51.258;6.806;2024-03-06T06:03:47;4.70;99.90
4354;DHT22;11018;51.258;6.806;2024-03-06T06:06:16;4.70;99.90
4354;DHT22;11018;51.258;6.806;2024-03-06T06:08:42;4.70;99.90
4354;DHT22;11018;51.258;6.806;2024-03-06T06:11:09;4.70;99.90
4354;DHT22;11018;51.258;6.806;2024-03-06T06:13:35;4.80;99.90
4354;DHT22;11018;51.258;6.806;2024-03-06T06:16:01;4.90;99.90
4354;DHT22;11018;51.258;6.806;2024-03-06T06:18:28;4.80;99.90
4354;DHT22;11018;51.258;6.806;2024-03-06T06:20:53;4.80;99.90
4354;DHT22;11018;51.258;6.806;2024-03-06T06:23:19;4.90;99.90
4354;DHT22;11018;51.258;6.806;2024-03-06T06:25:44;5.10;99.90
4354;DHT22;11018;51.258;6.806;2024-03-06T06:28:11;5.20;99.90
4354;DHT22;11018;51.258;6.806;2024-03-06T06:30:36;5.20;99.90
4354;DHT22;11018;51.258;6.806;2024-03-06T06:33:04;5.40;99.90
4354;DHT22;11018;51.258;6.806;2024-03-06T06:35:30;5.50;99.90
4354;DHT22;11018;51.258;6.806;2024-03-06T06:37:55;5.70;99.90
4354;DHT22;11018;51.258;6.806;2024-03-06T06:40:21;5.80;99.90
4354;DHT22;11018;51.258;6.806;2024-03-06T06:42:47;5.80;99.90
4354;DHT22;11018;51.258;6.806;2024-03-06T06:45:19;5.90;99.90
4354;DHT22;11018;51.258;6.806;2024-03-06T06:47:45;5.90;99.90
4354;DHT22;11018;51.258;6.806;2024-03-06T06:50:11;6.00;99.90
4354;DHT22;11018;51.258;6.806;2024-03-06T06:52:40;6.10;99.90
4354;DHT22;11018;51.258;6.806;2024-03-06T06:55:06;6.20;99.90
4354;DHT22;11018;51.258;6.806;2024-03-06T06:57:32;6.20;99.90
4354;DHT22;11018;51.258;6.806;2024-03-06T06:59:59;6.20;99.90
4354;DHT22;11018;51.258;6.806;2024-03-06T07:02:25;6.20;99.90
4354;DHT22;11018;51.258;6.806;2024-03-06T07:04:51;6.20;99.90
4354;DHT22;11018;51.258;6.806;2024-03-06T07:07:17;6.20;99.90
4354;DHT22;11018;51.258;6.806;2024-03-06T07:09:43;6.20;99.90
4354;DHT22;11018;51.258;6.806;2024-03-06T07:12:09;6.20;99.90
4354;DHT22;11018;51.258;6.806;2024-03-06T07:14:35;6.20;99.90
4354;DHT22;11018;51.258;6.806;2024-03-06T07:17:00;6.20;99.90
4354;DHT22;11018;51.258;6.806;2024-03-06T07:19:26;6.20;99.90
4354;DHT22;11018;51.258;6.806;2024-03-06T07:21:52;6.30;99.90
4354;DHT22;11018;51.258;6.806;2024-03-06T07:24:18;6.40;99.90
4354;DHT22;11018;51.258;6.806;2024-03-06T07:26:44;6.50;99.90
4354;DHT22;11018;51.258;6.806;2024-03-06T07:29:10;6.60;99.90
4354;DHT22;11018;51.258;6.806;2024-03-06T07:31:42;6.70;99.90
4354;DHT22;11018;51.258;6.806;2024-03-06T07:34:09;6.90;99.90
4354;DHT22;11018;51.258;6.806;2024-03-06T07:36:35;7.10;99.90
4354;DHT22;11018;51.258;6.806;2024-03-06T07:39:01;7.20;99.90
4354;DHT22;11018;51.258;6.806;2024-03-06T07:41:28;7.40;99.90
4354;DHT22;11018;51.258;6.806;2024-03-06T07:43:53;7.40;99.90
4354;DHT22;11018;51.258;6.806;2024-03-06T07:46:19;7.60;99.90
4354;DHT22;11018;51.258;6.806;2024-03-06T07:48:44;7.60;99.90
4354;DHT22;11018;51.258;6.806;2024-03-06T07:51:10;7.90;96.70
4354;DHT22;11018;51.258;6.806;2024-03-06T07:53:36;8.00;95.60
4354;DHT22;11018;51.258;6.806;2024-03-06T07:56:02;8.10;92.60
4354;DHT22;11018;51.258;6.806;2024-03-06T07:58:28;8.30;88.80
4354;DHT22;11018;51.258;6.806;2024-03-06T08:00:54;8.40;88.90
4354;DHT22;11018;51.258;6.806;2024-03-06T08:03:21;8.50;88.60
4354;DHT22;11018;51.258;6.806;2024-03-06T08:05:51;8.70;85.60
4354;DHT22;11018;51.258;6.806;2024-03-06T08:08:19;8.70;83.10
4354;DHT22;11018;51.258;6.806;2024-03-06T08:10:45;8.80;84.10
4354;DHT22;11018;51.258;6.806;2024-03-06T08:13:11;9.00;78.50
4354;DHT22;11018;51.258;6.806;2024-03-06T08:15:36;9.10;77.40
4354;DHT22;11018;51.258;6.806;2024-03-06T08:18:02;9.20;76.60
4354;DHT22;11018;51.258;6.806;2024-03-06T08:20:29;9.30;71.10
4354;DHT22;11018;51.258;6.806;2024-03-06T08:22:56;9.30;71.20
4354;DHT22;11018;51.258;6.806;2024-03-06T08:25:22;9.30;72.80
4354;DHT22;11018;51.258;6.806;2024-03-06T08:27:48;9.40;72.40
4354;DHT22;11018;51.258;6.806;2024-03-06T08:30:13;9.50;72.90
4354;DHT22;11018;51.258;6.806;2024-03-06T08:32:39;9.50;72.70
4354;DHT22;11018;51.258;6.806;2024-03-06T08:35:06;9.60;72.00
4354;DHT22;11018;51.258;6.806;2024-03-06T08:37:34;9.70;71.40
4354;DHT22;11018;51.258;6.806;2024-03-06T08:40:00;9.80;69.70
4354;DHT22;11018;51.258;6.806;2024-03-06T08:42:27;9.80;68.40
4354;DHT22;11018;51.258;6.806;2024-03-06T08:44:53;9.80;65.60
4354;DHT22;11018;51.258;6.806;2024-03-06T08:47:18;9.80;64.90
4354;DHT22;11018;51.258;6.806;2024-03-06T08:49:44;9.80;65.20
4354;DHT22;11018;51.258;6.806;2024-03-06T08:52:10;9.90;64.60
4354;DHT22;11018;51.258;6.806;2024-03-06T08:54:36;9.90;64.30
4354;DHT22;11018;51.258;6.806;2024-03-06T08:57:02;9.90;63.80
4354;DHT22;11018;51.258;6.806;2024-03-06T08:59:29;10.00;63.50
4354;DHT22;11018;51.258;6.806;2024-03-06T09:01:55;10.10;62.70
4354;DHT22;11018;51.258;6.806;2024-03-06T09:04:24;10.20;58.90
4354;DHT22;11018;51.258;6.806;2024-03-06T09:06:49;10.20;59.50
4354;DHT22;11018;51.258;6.806;2024-03-06T09:09:15;10.30;58.60
4354;DHT22;11018;51.258;6.806;2024-03-06T09:11:41;10.40;57.70
4354;DHT22;11018;51.258;6.806;2024-03-06T09:14:10;10.50;56.90
4354;DHT22;11018;51.258;6.806;2024-03-06T09:16:35;10.60;55.70
4354;DHT22;11018;51.258;6.806;2024-03-06T09:19:02;10.70;56.00
4354;DHT22;11018;51.258;6.806;2024-03-06T09:21:28;10.80;54.20
4354;DHT22;11018;51.258;6.806;2024-03-06T09:23:53;11.00;51.50
4354;DHT22;11018;51.258;6.806;2024-03-06T09:26:19;10.80;51.20
4354;DHT22;11018;51.258;6.806;2024-03-06T09:28:46;10.70;50.80
4354;DHT22;11018;51.258;6.806;2024-03-06T09:31:12;10.60;51.10
4354;DHT22;11018;51.258;6.806;2024-03-06T09:33:39;10.60;52.10
4354;DHT22;11018;51.258;6.806;2024-03-06T09:36:05;10.60;52.90
4354;DHT22;11018;51.258;6.806;2024-03-06T09:38:31;10.70;52.10
4354;DHT22;11018;51.258;6.806;2024-03-06T09:40:57;10.90;51.30
4354;DHT22;11018;51.258;6.806;2024-03-06T09:43:22;10.90;50.20
4354;DHT22;11018;51.258;6.806;2024-03-06T09:45:50;10.90;49.50
4354;DHT22;11018;51.258;6.806;2024-03-06T09:48:18;11.00;50.20
4354;DHT22;11018;51.258;6.806;2024-03-06T09:50:46;11.10;49.50
4354;DHT22;11018;51.258;6.806;2024-03-06T09:53:15;11.10;49.30
4354;DHT22;11018;51.258;6.806;2024-03-06T09:55:42;11.30;47.80
4354;DHT22;11018;51.258;6.806;2024-03-06T09:58:08;11.30;46.80
4354;DHT22;11018;51.258;6.806;2024-03-06T10:00:35;11.30;47.60
4354;DHT22;11018;51.258;6.806;2024-03-06T10:03:02;11.20;47.00
4354;DHT22;11018;51.258;6.806;2024-03-06T10:05:33;11.30;46.20
4354;DHT22;11018;51.258;6.806;2024-03-06T10:08:00;11.30;46.50
4354;DHT22;11018;51.258;6.806;2024-03-06T10:10:26;11.30;46.80
4354;DHT22;11018;51.258;6.806;2024-03-06T10:12:53;11.20;45.90
4354;DHT22;11018;51.258;6.806;2024-03-06T10:15:19;11.10;46.50
4354;DHT22;11018;51.258;6.806;2024-03-06T10:17:45;11.20;47.20
4354;DHT22;11018;51.258;6.806;2024-03-06T10:20:22;11.20;46.60
4354;DHT22;11018;51.258;6.806;2024-03-06T10:22:52;11.40;45.80
4354;DHT22;11018;51.258;6.806;2024-03-06T10:25:21;11.50;45.30
4354;DHT22;11018;51.258;6.806;2024-03-06T10:28:03;11.50;46.30
4354;DHT22;11018;51.258;6.806;2024-03-06T10:30:29;11.50;46.20
4354;DHT22;11018;51.258;6.806;2024-03-06T10:32:54;11.50;45.50
4354;DHT22;11018;51.258;6.806;2024-03-06T10:35:20;11.50;45.10
4354;DHT22;11018;51.258;6.806;2024-03-06T10:37:46;11.30;45.60
4354;DHT22;11018;51.258;6.806;2024-03-06T10:40:15;11.30;46.30
4354;DHT22;11018;51.258;6.806;2024-03-06T10:42:42;11.20;47.50
4354;DHT22;11018;51.258;6.806;2024-03-06T10:45:14;11.30;47.40
4354;DHT22;11018;51.258;6.806;2024-03-06T10:47:42;11.70;46.10
4354;DHT22;11018;51.258;6.806;2024-03-06T10:50:11;11.80;46.00
4354;DHT22;11018;51.258;6.806;2024-03-06T10:52:39;11.80;44.90
4354;DHT22;11018;51.258;6.806;2024-03-06T10:55:06;11.70;44.90
4354;DHT22;11018;51.258;6.806;2024-03-06T10:57:32;11.60;45.30
4354;DHT22;11018;51.258;6.806;2024-03-06T10:59:59;11.40;46.30
4354;DHT22;11018;51.258;6.806;2024-03-06T11:02:27;11.30;47.50
4354;DHT22;11018;51.258;6.806;2024-03-06T11:04:53;11.50;47.50
4354;DHT22;11018;51.258;6.806;2024-03-06T11:07:19;11.60;47.30
4354;DHT22;11018;51.258;6.806;2024-03-06T11:09:45;11.70;46.00
4354;DHT22;11018;51.258;6.806;2024-03-06T11:12:35;11.80;45.30
4354;DHT22;11018;51.258;6.806;2024-03-06T11:15:15;11.80;45.70
4354;DHT22;11018;51.258;6.806;2024-03-06T11:17:42;12.10;43.70
4354;DHT22;11018;51.258;6.806;2024-03-06T11:20:13;12.20;43.50
4354;DHT22;11018;51.258;6.806;2024-03-06T11:28:30;12.20;42.80
4354;DHT22;11018;51.258;6.806;2024-03-06T11:33:40;12.60;39.20
4354;DHT22;11018;51.258;6.806;2024-03-06T11:36:25;12.50;40.00
4354;DHT22;11018;51.258;6.806;2024-03-06T11:38:57;12.50;39.60
4354;DHT22;11018;51.258;6.806;2024-03-06T11:41:25;12.50;39.60
4354;DHT22;11018;51.258;6.806;2024-03-06T11:43:51;12.80;37.80
4354;DHT22;11018;51.258;6.806;2024-03-06T11:46:19;12.90;37.50
4354;DHT22;11018;51.258;6.806;2024-03-06T11:48:55;13.20;37.00
4354;DHT22;11018;51.258;6.806;2024-03-06T11:51:22;13.50;36.80
4354;DHT22;11018;51.258;6.806;2024-03-06T11:53:52;14.00;34.80
4354;DHT22;11018;51.258;6.806;2024-03-06T11:56:19;14.20;34.10
4354;DHT22;11018;51.258;6.806;2024-03-06T11:58:46;14.50;32.90
4354;DHT22;11018;51.258;6.806;2024-03-06T12:01:12;14.70;32.40
4354;DHT22;11018;51.258;6.806;2024-03-06T12:03:38;14.90;31.50
4354;DHT22;11018;51.258;6.806;2024-03-06T12:06:04;15.20;28.10
4354;DHT22;11018;51.258;6.806;2024-03-06T12:08:30;15.20;27.20
4354;DHT22;11018;51.258;6.806;2024-03-06T12:10:55;15.10;27.10
4354;DHT22;11018;51.258;6.806;2024-03-06T12:13:24;15.10;27.20
4354;DHT22;11018;51.258;6.806;2024-03-06T12:15:50;15.00;26.50
4354;DHT22;11018;51.258;6.806;2024-03-06T12:18:17;15.00;25.40
4354;DHT22;11018;51.258;6.806;2024-03-06T12:20:43;14.80;25.80
4354;DHT22;11018;51.258;6.806;2024-03-06T12:23:22;14.70;26.60
4354;DHT22;11018;51.258;6.806;2024-03-06T12:28:30;14.90;27.80
4354;DHT22;11018;51.258;6.806;2024-03-06T12:30:56;14.80;27.50
4354;DHT22;11018;51.258;6.806;2024-03-06T12:33:26;14.30;28.20
4354;DHT22;11018;51.258;6.806;2024-03-06T12:36:05;14.00;28.30
4354;DHT22;11018;51.258;6.806;2024-03-06T12:38:32;13.70;29.90
4354;DHT22;11018;51.258;6.806;2024-03-06T12:40:59;13.50;30.70
4354;DHT22;11018;51.258;6.806;2024-03-06T12:43:26;13.40;31.10
4354;DHT22;11018;51.258;6.806;2024-03-06T12:45:52;13.50;29.90
4354;DHT22;11018;51.258;6.806;2024-03-06T12:48:20;13.40;29.60
4354;DHT22;11018;51.258;6.806;2024-03-06T12:50:46;13.30;30.10
4354;DHT22;11018;51.258;6.806;2024-03-06T12:53:18;13.30;29.90
4354;DHT22;11018;51.258;6.806;2024-03-06T12:55:44;13.40;30.10
4354;DHT22;11018;51.258;6.806;2024-03-06T12:58:11;13.70;29.90
4354;DHT22;11018;51.258;6.806;2024-03-06T13:00:37;14.20;29.20
4354;DHT22;11018;51.258;6.806;2024-03-06T13:03:02;14.40;28.30
4354;DHT22;11018;51.258;6.806;2024-03-06T13:05:28;14.50;28.40
4354;DHT22;11018;51.258;6.806;2024-03-06T13:07:53;14.30;28.80
4354;DHT22;11018;51.258;6.806;2024-03-06T13:10:20;14.10;29.00
4354;DHT22;11018;51.258;6.806;2024-03-06T13:12:47;14.10;28.90
4354;DHT22;11018;51.258;6.806;2024-03-06T13:15:13;14.00;28.50
4354;DHT22;11018;51.258;6.806;2024-03-06T13:17:38;13.80;28.80
4354;DHT22;11018;51.258;6.806;2024-03-06T13:20:06;13.60;29.50
4354;DHT22;11018;51.258;6.806;2024-03-06T13:22:34;13.40;29.50
4354;DHT22;11018;51.258;6.806;2024-03-06T13:25:00;13.30;29.40
4354;DHT22;11018;51.258;6.806;2024-03-06T13:27:26;13.20;29.50
4354;DHT22;11018;51.258;6.806;2024-03-06T13:29:52;13.20;30.00
4354;DHT22;11018;51.258;6.806;2024-03-06T13:32:17;13.20;29.50
4354;DHT22;11018;51.258;6.806;2024-03-06T13:34:43;13.20;29.70
4354;DHT22;11018;51.258;6.806;2024-03-06T13:37:09;13.20;28.20
4354;DHT22;11018;51.258;6.806;2024-03-06T13:39:35;13.20;28.00
4354;DHT22;11018;51.258;6.806;2024-03-06T13:42:01;13.30;27.50
4354;DHT22;11018;51.258;6.806;2024-03-06T13:44:26;13.50;27.10
4354;DHT22;11018;51.258;6.806;2024-03-06T13:46:52;13.40;26.90
4354;DHT22;11018;51.258;6.806;2024-03-06T13:49:37;13.40;27.90
4354;DHT22;11018;51.258;6.806;2024-03-06T13:52:04;13.50;28.90
4354;DHT22;11018;51.258;6.806;2024-03-06T13:54:31;13.50;27.20
4354;DHT22;11018;51.258;6.806;2024-03-06T13:56:56;13.70;27.30
4354;DHT22;11018;51.258;6.806;2024-03-06T13:59:30;14.00;28.00
4354;DHT22;11018;51.258;6.806;2024-03-06T14:01:56;14.20;28.30
4354;DHT22;11018;51.258;6.806;2024-03-06T14:04:22;14.30;26.70
4354;DHT22;11018;51.258;6.806;2024-03-06T14:06:49;14.30;26.90
4354;DHT22;11018;51.258;6.806;2024-03-06T14:09:14;14.30;26.70
4354;DHT22;11018;51.258;6.806;2024-03-06T14:11:40;14.30;27.30
4354;DHT22;11018;51.258;6.806;2024-03-06T14:14:06;14.40;26.80
4354;DHT22;11018;51.258;6.806;2024-03-06T14:16:31;14.20;26.40
4354;DHT22;11018;51.258;6.806;2024-03-06T14:18:57;14.00;27.50
4354;DHT22;11018;51.258;6.806;2024-03-06T14:21:23;13.80;27.50
4354;DHT22;11018;51.258;6.806;2024-03-06T14:23:48;13.90;27.50
4354;DHT22;11018;51.258;6.806;2024-03-06T14:26:14;14.00;27.70
4354;DHT22;11018;51.258;6.806;2024-03-06T14:28:40;13.90;27.40
4354;DHT22;11018;51.258;6.806;2024-03-06T14:31:05;14.00;27.40
4354;DHT22;11018;51.258;6.806;2024-03-06T14:33:31;14.00;27.20
4354;DHT22;11018;51.258;6.806;2024-03-06T14:35:56;13.90;27.30
4354;DHT22;11018;51.258;6.806;2024-03-06T14:38:22;14.00;27.10
4354;DHT22;11018;51.258;6.806;2024-03-06T14:40:48;13.90;27.00
4354;DHT22;11018;51.258;6.806;2024-03-06T14:43:13;13.80;27.90
4354;DHT22;11018;51.258;6.806;2024-03-06T14:45:39;13.60;27.90
4354;DHT22;11018;51.258;6.806;2024-03-06T14:48:08;13.60;27.70
4354;DHT22;11018;51.258;6.806;2024-03-06T14:50:33;13.50;28.50
4354;DHT22;11018;51.258;6.806;2024-03-06T14:52:59;13.50;28.60
4354;DHT22;11018;51.258;6.806;2024-03-06T14:55:25;13.30;29.00
4354;DHT22;11018;51.258;6.806;2024-03-06T14:57:50;13.10;30.00
4354;DHT22;11018;51.258;6.806;2024-03-06T15:00:16;13.30;29.20
4354;DHT22;11018;51.258;6.806;2024-03-06T15:02:46;13.40;28.80
4354;DHT22;11018;51.258;6.806;2024-03-06T15:05:12;13.30;28.90
4354;DHT22;11018;51.258;6.806;2024-03-06T15:07:38;13.30;29.20
4354;DHT22;11018;51.258;6.806;2024-03-06T15:10:07;13.10;29.80
4354;DHT22;11018;51.258;6.806;2024-03-06T15:12:34;13.10;29.40
4354;DHT22;11018;51.258;6.806;2024-03-06T15:15:01;13.10;28.30
4354;DHT22;11018;51.258;6.806;2024-03-06T15:17:28;13.20;28.30
4354;DHT22;11018;51.258;6.806;2024-03-06T15:19:53;13.10;29.30
4354;DHT22;11018;51.258;6.806;2024-03-06T15:22:19;13.00;29.10
4354;DHT22;11018;51.258;6.806;2024-03-06T15:24:44;12.90;29.70
4354;DHT22;11018;51.258;6.806;2024-03-06T15:27:16;12.80;30.00
4354;DHT22;11018;51.258;6.806;2024-03-06T15:29:42;12.70;30.30
4354;DHT22;11018;51.258;6.806;2024-03-06T15:32:07;12.70;30.40
4354;DHT22;11018;51.258;6.806;2024-03-06T15:34:33;12.70;30.40
4354;DHT22;11018;51.258;6.806;2024-03-06T15:36:58;12.80;30.30
4354;DHT22;11018;51.258;6.806;2024-03-06T15:39:25;13.00;29.30
4354;DHT22;11018;51.258;6.806;2024-03-06T15:41:50;13.00;29.90
4354;DHT22;11018;51.258;6.806;2024-03-06T15:44:16;12.80;30.10
4354;DHT22;11018;51.258;6.806;2024-03-06T15:46:41;12.80;30.70
4354;DHT22;11018;51.258;6.806;2024-03-06T15:49:19;12.80;30.50
4354;DHT22;11018;51.258;6.806;2024-03-06T15:51:51;12.80;30.40
4354;DHT22;11018;51.258;6.806;2024-03-06T15:54:21;12.70;31.00
4354;DHT22;11018;51.258;6.806;2024-03-06T15:56:47;13.00;30.00
4354;DHT22;11018;51.258;6.806;2024-03-06T15:59:12;13.10;29.50
4354;DHT22;11018;51.258;6.806;2024-03-06T16:01:38;13.10;29.70